Time;durP1;ratioP1;P1;durP2;ratioP2;P2;SDS_P1;SDS_P2;PMS_P1;PMS_P2;Temp;Humidity;BMP_temperature;BMP_pressure;BME280_temperature;BME280_humidity;BME280_pressure;Samples;Min_cycle;Max_cycle;Signal;HPM_P1;HPM_P2
2023/05/15 00:00:05;;;;;;;14.73;10.27;;;16.60;68.80;;;;;;5069797;28;20032;-74
2023/05/15 00:02:38;;;;;;;13.02;9.50;;;16.50;68.90;;;;;;5075794;28;20036;-74
2023/05/15 00:05:05;;;;;;;14.43;9.68;;;16.50;68.80;;;;;;5072835;28;20056;-74
2023/05/15 00:07:31;;;;;;;16.80;10.27;;;16.50;68.80;;;;;;5068365;28;20122;-74
2023/05/15 00:09:57;;;;;;;12.55;9.43;;;16.50;68.80;;;;;;5073706;28;20062;-74
2023/05/15 00:12:22;;;;;;;12.27;9.73;;;16.50;68.80;;;;;;5071575;28;20036;-74
2023/05/15 00:14:48;;;;;;;13.65;9.10;;;16.50;68.60;;;;;;5076301;28;20028;-74
2023/05/15 00:17:14;;;;;;;17.02;10.40;;;16.40;68.50;;;;;;5072773;28;20049;-74
2023/05/15 00:19:40;;;;;;;12.27;9.13;;;16.40;68.50;;;;;;5072420;28;20365;-74
2023/05/15 00:22:06;;;;;;;14.32;9.18;;;16.40;68.30;;;;;;5081282;28;20162;-74
2023/05/15 00:24:32;;;;;;;13.35;8.98;;;16.40;68.20;;;;;;5074577;28;20301;-74
2023/05/15 00:26:59;;;;;;;12.07;9.18;;;16.40;68.10;;;;;;5075522;28;20052;-75
2023/05/15 00:29:25;;;;;;;13.38;9.23;;;16.30;68.10;;;;;;5069755;28;20024;-74
2023/05/15 00:31:51;;;;;;;12.85;9.32;;;16.30;67.80;;;;;;5074001;28;20094;-74
2023/05/15 00:34:16;;;;;;;14.32;9.25;;;16.30;67.70;;;;;;5075474;28;20024;-74
2023/05/15 00:36:43;;;;;;;14.10;9.15;;;16.20;67.60;;;;;;5057441;28;20017;-74
2023/05/15 00:39:10;;;;;;;13.93;8.48;;;16.20;67.40;;;;;;5069866;28;20039;-74
2023/05/15 00:41:36;;;;;;;11.38;8.93;;;16.20;67.20;;;;;;5072899;28;20048;-74
2023/05/15 00:44:02;;;;;;;12.80;9.20;;;16.20;67.00;;;;;;5060022;28;20399;-74
2023/05/15 00:46:30;;;;;;;12.07;8.75;;;16.20;66.90;;;;;;5066737;28;20025;-74
2023/05/15 00:48:57;;;;;;;11.73;8.50;;;16.20;66.70;;;;;;5073881;28;20137;-74
2023/05/15 00:51:24;;;;;;;11.48;8.15;;;16.20;66.60;;;;;;5073296;28;20382;-74
2023/05/15 00:53:55;;;;;;;14.80;8.70;;;16.10;66.40;;;;;;5074602;28;20150;-74
2023/05/15 00:56:21;;;;;;;10.67;7.47;;;16.10;66.30;;;;;;5075533;28;20089;-74
2023/05/15 00:58:48;;;;;;;13.02;8.65;;;16.10;66.10;;;;;;5054604;28;20356;-74
2023/05/15 01:01:16;;;;;;;12.30;8.68;;;16.10;65.90;;;;;;5073684;28;20037;-74
2023/05/15 01:03:45;;;;;;;12.32;8.68;;;16.10;65.80;;;;;;5072663;28;20057;-74
2023/05/15 01:06:11;;;;;;;13.63;9.07;;;16.10;65.70;;;;;;5072284;28;20024;-74
2023/05/15 01:08:45;;;;;;;12.25;8.80;;;16.00;65.60;;;;;;5073414;28;20055;-74
2023/05/15 01:11:13;;;;;;;12.05;8.43;;;16.00;65.60;;;;;;5066667;28;20119;-74
2023/05/15 01:13:39;;;;;;;13.43;9.40;;;16.00;65.50;;;;;;5067457;28;20029;-74
2023/05/15 01:16:06;;;;;;;13.13;9.15;;;16.00;65.50;;;;;;5072837;28;20338;-74
2023/05/15 01:18:33;;;;;;;15.88;8.85;;;16.10;65.40;;;;;;5074391;28;20055;-74
2023/05/15 01:21:04;;;;;;;12.95;8.75;;;16.00;65.40;;;;;;5073160;28;20307;-74
2023/05/15 01:24:01;;;;;;;13.10;9.32;;;16.00;65.50;;;;;;5068688;28;20021;-74
2023/05/15 01:27:04;;;;;;;11.75;8.23;;;16.00;65.50;;;;;;5055616;28;20035;-74
2023/05/15 01:29:41;;;;;;;13.98;9.80;;;15.90;65.70;;;;;;5071839;28;20451;-74
2023/05/15 01:32:33;;;;;;;12.80;9.23;;;15.90;65.90;;;;;;5070802;28;20034;-74
2023/05/15 01:35:13;;;;;;;11.80;8.85;;;15.90;66.00;;;;;;5072705;28;20107;-74
2023/05/15 01:37:48;;;;;;;14.15;9.52;;;15.80;66.20;;;;;;5073853;28;20021;-74
2023/05/15 01:40:18;;;;;;;15.60;9.95;;;15.80;66.40;;;;;;5060440;28;20103;-74
2023/05/15 01:42:52;;;;;;;14.13;10.05;;;15.80;66.50;;;;;;5063662;28;20032;-74
2023/05/15 01:45:22;;;;;;;14.48;10.27;;;15.80;66.60;;;;;;5068122;28;20456;-74
2023/05/15 01:47:48;;;;;;;15.48;10.43;;;15.80;66.80;;;;;;5073110;28;20012;-74
2023/05/15 01:50:16;;;;;;;13.65;9.95;;;15.80;67.00;;;;;;5069346;28;20021;-74
2023/05/15 01:52:49;;;;;;;17.40;10.30;;;15.80;67.10;;;;;;5073759;28;20025;-74
2023/05/15 01:55:17;;;;;;;14.70;10.75;;;15.80;67.20;;;;;;5057612;28;20032;-74
2023/05/15 01:57:45;;;;;;;13.35;9.95;;;15.80;67.30;;;;;;5062080;28;20029;-74
2023/05/15 02:00:12;;;;;;;13.27;10.35;;;15.80;67.50;;;;;;5073087;28;20476;-74
2023/05/15 02:02:42;;;;;;;15.15;10.57;;;15.70;67.50;;;;;;5070867;28;20387;-74
2023/05/15 02:05:09;;;;;;;13.73;9.50;;;15.80;67.80;;;;;;5065067;28;20487;-74
2023/05/15 02:07:36;;;;;;;13.90;10.63;;;15.80;67.90;;;;;;5071259;28;20107;-74
2023/05/15 02:10:02;;;;;;;14.60;10.80;;;15.80;68.00;;;;;;5083296;28;20086;-74
2023/05/15 02:12:30;;;;;;;15.43;10.50;;;15.80;68.20;;;;;;5071953;28;20032;-74
2023/05/15 02:14:58;;;;;;;16.70;11.02;;;15.70;68.20;;;;;;5070855;28;20099;-74
2023/05/15 02:17:24;;;;;;;13.75;10.55;;;15.70;68.30;;;;;;5065848;28;20410;-74
2023/05/15 02:19:50;;;;;;;17.98;10.80;;;15.70;68.50;;;;;;5055997;28;20055;-74
2023/05/15 02:22:16;;;;;;;15.55;10.13;;;15.70;68.60;;;;;;5061755;28;20434;-74
2023/05/15 02:24:41;;;;;;;13.73;9.70;;;15.70;68.60;;;;;;5071611;28;20097;-74
2023/05/15 02:27:15;;;;;;;16.23;10.57;;;15.70;68.70;;;;;;5073166;28;20020;-74
2023/05/15 02:30:00;;;;;;;13.27;9.50;;;15.60;68.70;;;;;;5069553;28;20025;-74
2023/05/15 02:32:46;;;;;;;13.55;10.35;;;15.60;68.70;;;;;;5061661;28;20100;-74
2023/05/15 02:35:42;;;;;;;14.98;9.77;;;15.70;68.80;;;;;;5061246;28;20024;-74
2023/05/15 02:38:14;;;;;;;13.70;9.77;;;15.60;68.70;;;;;;5069372;28;20032;-74
2023/05/15 02:40:42;;;;;;;12.82;9.50;;;15.60;68.80;;;;;;5067229;28;20086;-74
2023/05/15 02:43:10;;;;;;;16.15;11.35;;;15.60;68.70;;;;;;5071204;28;20062;-74
2023/05/15 02:45:36;;;;;;;15.68;11.23;;;15.60;68.70;;;;;;5067953;28;20086;-73
2023/05/15 02:48:04;;;;;;;15.02;10.60;;;15.60;68.80;;;;;;5071057;28;20016;-74
2023/05/15 02:50:29;;;;;;;14.15;9.82;;;15.60;68.90;;;;;;5067548;28;20115;-74
2023/05/15 02:53:02;;;;;;;15.65;10.25;;;15.50;68.90;;;;;;5054509;28;20111;-74
2023/05/15 02:55:28;;;;;;;13.10;9.98;;;15.50;68.90;;;;;;5059648;28;20040;-74
2023/05/15 02:57:54;;;;;;;15.10;10.68;;;15.50;68.90;;;;;;5069057;28;20025;-74
2023/05/15 03:00:20;;;;;;;15.43;10.45;;;15.50;69.00;;;;;;5070798;28;20035;-74
2023/05/15 03:02:46;;;;;;;14.05;10.90;;;15.50;69.10;;;;;;5073139;28;20120;-74
2023/05/15 03:05:11;;;;;;;14.50;10.38;;;15.50;69.10;;;;;;5073779;28;20028;-74
2023/05/15 03:07:37;;;;;;;15.25;10.77;;;15.50;69.20;;;;;;5062110;28;20025;-74
2023/05/15 03:10:04;;;;;;;13.68;11.15;;;15.40;69.20;;;;;;5072004;28;20040;-74
2023/05/15 03:12:30;;;;;;;16.65;11.40;;;15.40;69.20;;;;;;5064586;28;20040;-74
2023/05/15 03:14:55;;;;;;;16.30;11.55;;;15.40;69.30;;;;;;5071609;28;20108;-74
2023/05/15 03:17:21;;;;;;;15.73;11.32;;;15.40;69.40;;;;;;5072083;28;20415;-75
2023/05/15 03:19:47;;;;;;;16.63;10.88;;;15.40;69.50;;;;;;5072613;28;20072;-74
2023/05/15 03:22:13;;;;;;;16.05;11.48;;;15.30;69.50;;;;;;5065883;28;20040;-74
2023/05/15 03:24:39;;;;;;;18.10;11.27;;;15.30;69.70;;;;;;5067026;28;20043;-74
2023/05/15 03:27:06;;;;;;;14.65;11.30;;;15.30;69.70;;;;;;5054687;28;20063;-73
2023/05/15 03:29:31;;;;;;;18.75;12.65;;;15.30;69.90;;;;;;5074936;28;20052;-74
2023/05/15 03:31:57;;;;;;;18.00;11.90;;;15.20;69.90;;;;;;5058220;28;20119;-74
2023/05/15 03:34:23;;;;;;;16.90;12.35;;;15.30;70.00;;;;;;5071914;28;20021;-73
2023/05/15 03:36:48;;;;;;;18.88;12.23;;;15.30;70.20;;;;;;5077551;28;20111;-74
2023/05/15 03:39:14;;;;;;;17.50;12.88;;;15.20;70.10;;;;;;5073898;28;20368;-74
2023/05/15 03:41:40;;;;;;;17.92;12.75;;;15.20;70.20;;;;;;5075378;28;20368;-74
2023/05/15 03:44:06;;;;;;;20.85;13.63;;;15.20;70.30;;;;;;5073750;28;20035;-74
2023/05/15 03:46:32;;;;;;;18.58;13.45;;;15.20;70.50;;;;;;5063566;28;20052;-74
2023/05/15 03:48:57;;;;;;;17.50;13.32;;;15.20;70.70;;;;;;5070473;28;20032;-74
2023/05/15 03:51:23;;;;;;;18.77;14.18;;;15.10;70.80;;;;;;5074517;28;20098;-73
2023/05/15 03:53:53;;;;;;;19.52;13.50;;;15.10;71.00;;;;;;5080708;28;20053;-74
2023/05/15 03:56:21;;;;;;;20.20;13.13;;;15.10;71.10;;;;;;5059856;28;20415;-74
2023/05/15 03:58:47;;;;;;;19.85;14.25;;;15.10;71.30;;;;;;5070594;28;20029;-74
2023/05/15 04:01:13;;;;;;;22.48;13.40;;;15.10;71.50;;;;;;5070203;28;20048;-75
2023/05/15 04:03:39;;;;;;;19.48;13.32;;;15.10;71.60;;;;;;5061932;28;20446;-74
2023/05/15 04:06:05;;;;;;;19.23;13.35;;;15.10;71.60;;;;;;5075248;28;20039;-74
2023/05/15 04:08:30;;;;;;;19.85;13.93;;;15.10;71.60;;;;;;5073139;28;20020;-74
2023/05/15 04:10:56;;;;;;;19.70;13.77;;;15.10;71.70;;;;;;5075162;28;20046;-74
2023/05/15 04:13:22;;;;;;;19.65;14.35;;;15.10;71.90;;;;;;5064923;28;20033;-73
2023/05/15 04:15:48;;;;;;;18.65;14.45;;;15.10;72.00;;;;;;5070682;28;20032;-74
2023/05/15 04:18:14;;;;;;;19.48;13.55;;;15.10;72.00;;;;;;5070975;28;20090;-74
2023/05/15 04:20:40;;;;;;;18.48;13.80;;;15.10;72.00;;;;;;5072952;28;20421;-74
2023/05/15 04:23:05;;;;;;;20.50;13.90;;;15.20;72.20;;;;;;5048167;28;20090;-74
2023/05/15 04:25:31;;;;;;;21.10;15.00;;;15.20;72.20;;;;;;5069188;28;20082;-73
2023/05/15 04:27:57;;;;;;;20.33;14.63;;;15.20;72.20;;;;;;5059287;28;20020;-74
2023/05/15 04:30:23;;;;;;;19.95;15.20;;;15.20;72.20;;;;;;5069440;28;20029;-74
2023/05/15 04:32:50;;;;;;;20.33;13.93;;;15.20;72.30;;;;;;5067539;28;20036;-74
2023/05/15 04:35:16;;;;;;;19.80;13.63;;;15.20;72.30;;;;;;5066971;28;20056;-73
2023/05/15 04:37:44;;;;;;;20.20;14.63;;;15.20;72.30;;;;;;5069504;28;20033;-73
2023/05/15 04:40:11;;;;;;;18.52;13.90;;;15.30;72.40;;;;;;5055083;28;20035;-73
2023/05/15 04:42:36;;;;;;;19.17;13.75;;;15.30;72.30;;;;;;5058270;28;20028;-74
2023/05/15 04:45:02;;;;;;;19.02;13.57;;;15.30;72.30;;;;;;5068923;28;20104;-74
2023/05/15 04:47:28;;;;;;;19.92;13.82;;;15.30;72.30;;;;;;5066097;28;20039;-74
2023/05/15 04:49:54;;;;;;;18.92;13.30;;;15.40;72.30;;;;;;5072400;28;20021;-74
2023/05/15 04:52:20;;;;;;;20.67;14.60;;;15.40;72.30;;;;;;5065833;28;20485;-74
2023/05/15 04:54:47;;;;;;;19.75;14.40;;;15.40;72.20;;;;;;5065604;28;20028;-74
2023/05/15 04:57:12;;;;;;;19.17;14.45;;;15.40;72.20;;;;;;5066597;28;20032;-74
2023/05/15 04:59:38;;;;;;;20.45;14.45;;;15.40;72.30;;;;;;5072780;28;20032;-74
2023/05/15 05:02:04;;;;;;;19.15;14.48;;;15.40;72.40;;;;;;5063315;28;20427;-74
2023/05/15 05:04:30;;;;;;;18.23;13.45;;;15.40;72.40;;;;;;5066224;28;20111;-73
2023/05/15 05:06:55;;;;;;;20.00;14.45;;;15.40;72.50;;;;;;5068891;28;20025;-72
2023/05/15 05:09:21;;;;;;;21.23;14.88;;;15.40;72.40;;;;;;5071151;28;20028;-73
2023/05/15 05:11:47;;;;;;;20.60;14.00;;;15.40;72.30;;;;;;5074703;28;20024;-72
2023/05/15 05:14:14;;;;;;;21.25;13.93;;;15.30;72.20;;;;;;5075517;28;20043;-72
2023/05/15 05:16:40;;;;;;;19.83;13.32;;;15.40;72.20;;;;;;5065538;28;20065;-72
2023/05/15 05:19:06;;;;;;;19.70;13.80;;;15.40;72.00;;;;;;5071392;28;20044;-72
2023/05/15 05:21:32;;;;;;;17.75;12.90;;;15.40;72.00;;;;;;5074547;28;20467;-72
2023/05/15 05:23:58;;;;;;;20.92;14.27;;;15.40;71.80;;;;;;5075581;28;20429;-72
2023/05/15 05:26:25;;;;;;;17.58;12.75;;;15.40;71.70;;;;;;5086886;28;20115;-73
2023/05/15 05:28:51;;;;;;;19.95;14.18;;;15.50;71.70;;;;;;5075096;28;20388;-72
2023/05/15 05:31:17;;;;;;;18.27;12.77;;;15.50;71.50;;;;;;5075879;28;20055;-72
2023/05/15 05:33:43;;;;;;;19.10;13.75;;;15.50;71.30;;;;;;5074637;28;20024;-72
2023/05/15 05:36:09;;;;;;;18.75;12.82;;;15.50;71.00;;;;;;5074103;28;20418;-72
2023/05/15 05:38:35;;;;;;;20.02;13.73;;;15.60;70.90;;;;;;5073255;28;20058;-72
2023/05/15 05:41:01;;;;;;;22.15;14.48;;;15.60;70.80;;;;;;5060476;28;20343;-73
2023/05/15 05:43:28;;;;;;;18.42;13.15;;;15.60;70.60;;;;;;5071543;28;20362;-72
2023/05/15 05:45:54;;;;;;;20.20;13.43;;;15.60;70.30;;;;;;5067079;28;20063;-72
2023/05/15 05:48:19;;;;;;;19.38;14.02;;;15.70;70.20;;;;;;5062855;28;20118;-73
2023/05/15 05:50:45;;;;;;;18.23;13.15;;;15.80;70.10;;;;;;5063012;28;20063;-73
2023/05/15 05:53:11;;;;;;;19.73;14.43;;;15.90;69.70;;;;;;5048119;28;20102;-73
2023/05/15 05:55:37;;;;;;;18.10;13.23;;;16.00;69.40;;;;;;5064139;28;20027;-73
2023/05/15 05:58:03;;;;;;;16.98;13.10;;;16.10;69.20;;;;;;5056526;28;20025;-73
2023/05/15 06:00:29;;;;;;;16.73;12.68;;;16.10;69.00;;;;;;5060892;28;20051;-74
2023/05/15 06:02:57;;;;;;;19.80;13.68;;;16.20;68.80;;;;;;5061300;28;20112;-74
2023/05/15 06:05:26;;;;;;;19.77;12.75;;;16.30;68.40;;;;;;5057928;28;20414;-73
2023/05/15 06:07:53;;;;;;;17.63;12.25;;;16.50;68.10;;;;;;5072088;28;20095;-73
2023/05/15 06:10:19;;;;;;;18.58;12.18;;;16.70;67.70;;;;;;5064542;28;20025;-73
2023/05/15 06:12:45;;;;;;;18.42;11.05;;;16.90;67.20;;;;;;5061687;28;20033;-73
2023/05/15 06:15:11;;;;;;;15.68;11.98;;;17.10;66.80;;;;;;5067232;28;20063;-73
2023/05/15 06:17:37;;;;;;;15.48;11.80;;;17.20;66.30;;;;;;5066591;28;20402;-73
2023/05/15 06:20:10;;;;;;;18.65;12.77;;;17.20;66.20;;;;;;5063620;28;20036;-73
2023/05/15 06:22:36;;;;;;;16.63;12.13;;;17.30;66.10;;;;;;5070864;28;20108;-73
2023/05/15 06:25:04;;;;;;;15.27;11.60;;;17.50;65.80;;;;;;5066912;28;20397;-73
2023/05/15 06:27:31;;;;;;;15.05;11.27;;;17.70;65.30;;;;;;5061376;28;20119;-73
2023/05/15 06:29:56;;;;;;;15.23;11.32;;;17.80;64.80;;;;;;5073327;28;20356;-73
2023/05/15 06:32:22;;;;;;;16.17;12.55;;;18.00;64.40;;;;;;5069007;28;20024;-73
2023/05/15 06:34:48;;;;;;;17.33;11.80;;;18.10;64.10;;;;;;5064372;28;20075;-73
2023/05/15 06:37:14;;;;;;;15.25;10.88;;;18.20;63.80;;;;;;5067951;28;20143;-74
2023/05/15 06:39:40;;;;;;;16.65;12.15;;;18.40;63.50;;;;;;5068970;28;20032;-73
2023/05/15 06:42:06;;;;;;;16.55;11.35;;;18.40;63.20;;;;;;5086499;28;20036;-75
2023/05/15 06:44:33;;;;;;;16.30;11.98;;;18.50;63.00;;;;;;5069081;28;20017;-73
2023/05/15 06:46:59;;;;;;;16.52;11.70;;;18.70;62.70;;;;;;5069955;28;20089;-72
2023/05/15 06:49:26;;;;;;;16.92;12.10;;;18.70;62.30;;;;;;5069144;28;20039;-73
2023/05/15 06:51:53;;;;;;;16.55;12.05;;;18.80;62.10;;;;;;5073694;28;20457;-73
2023/05/15 06:54:19;;;;;;;16.42;12.18;;;18.90;61.70;;;;;;5067278;28;20029;-71
2023/05/15 06:56:45;;;;;;;15.02;11.10;;;19.10;61.30;;;;;;5061070;28;20024;-72
2023/05/15 06:59:11;;;;;;;14.60;10.88;;;19.20;60.70;;;;;;5065217;28;20502;-71
2023/05/15 07:01:37;;;;;;;16.77;11.32;;;19.20;60.50;;;;;;5060969;28;20105;-71
2023/05/15 07:04:03;;;;;;;13.77;10.95;;;19.00;60.60;;;;;;5064448;28;20033;-72
2023/05/15 07:06:30;;;;;;;15.52;10.65;;;18.70;60.60;;;;;;5064907;28;20199;-71
2023/05/15 07:08:58;;;;;;;16.60;10.80;;;18.50;60.90;;;;;;5064394;28;20056;-70
2023/05/15 07:11:24;;;;;;;13.93;10.77;;;18.30;61.20;;;;;;5053973;28;20386;-72
2023/05/15 07:13:51;;;;;;;14.68;10.50;;;18.20;61.20;;;;;;5058271;28;20029;-73
2023/05/15 07:16:17;;;;;;;14.75;10.02;;;18.20;61.20;;;;;;5062363;28;20032;-72
2023/05/15 07:18:42;;;;;;;15.50;10.40;;;18.30;61.00;;;;;;5060212;28;20044;-71
2023/05/15 07:21:08;;;;;;;12.63;9.38;;;18.50;60.80;;;;;;5058328;28;20037;-74
2023/05/15 07:23:34;;;;;;;11.85;8.65;;;18.70;60.20;;;;;;5058051;28;20112;-73
2023/05/15 07:25:59;;;;;;;12.27;9.35;;;18.90;59.70;;;;;;5058387;28;20040;-72
2023/05/15 07:28:25;;;;;;;12.85;9.15;;;19.30;59.20;;;;;;5064921;28;20067;-74
2023/05/15 07:30:51;;;;;;;15.40;9.90;;;19.60;58.50;;;;;;5063490;28;20346;-71
2023/05/15 07:33:17;;;;;;;13.70;10.18;;;20.00;58.00;;;;;;5057149;28;20065;-71
2023/05/15 07:35:43;;;;;;;13.20;9.60;;;20.30;57.60;;;;;;5065833;28;20028;-71
2023/05/15 07:38:09;;;;;;;13.48;10.48;;;20.50;57.10;;;;;;5068679;28;20071;-70
2023/05/15 07:40:35;;;;;;;13.15;9.98;;;20.70;56.60;;;;;;5060696;28;20024;-71
2023/05/15 07:43:01;;;;;;;12.25;9.60;;;20.90;56.30;;;;;;5070505;28;20511;-72
2023/05/15 07:45:27;;;;;;;14.00;9.82;;;21.00;55.70;;;;;;5060946;28;20028;-71
2023/05/15 07:47:54;;;;;;;12.65;8.73;;;21.10;55.40;;;;;;5066413;28;20060;-73
2023/05/15 07:50:20;;;;;;;13.85;10.10;;;21.30;55.20;;;;;;5070306;28;20028;-72
2023/05/15 07:52:46;;;;;;;12.55;9.50;;;21.40;55.00;;;;;;5072202;28;20377;-72
2023/05/15 07:55:12;;;;;;;12.38;9.18;;;21.40;54.80;;;;;;5071973;28;20032;-73
2023/05/15 07:57:41;;;;;;;13.02;10.13;;;21.30;54.80;;;;;;5054680;28;20060;-72
2023/05/15 08:00:11;;;;;;;12.52;9.93;;;21.10;55.00;;;;;;5067425;28;20445;-72
2023/05/15 08:02:38;;;;;;;11.70;9.27;;;20.90;55.40;;;;;;5061136;28;20029;-72
2023/05/15 08:05:04;;;;;;;14.27;10.02;;;20.70;55.70;;;;;;5055742;28;20021;-72
2023/05/15 08:07:32;;;;;;;12.82;9.63;;;20.60;56.00;;;;;;5084757;28;20028;-70
2023/05/15 08:09:58;;;;;;;12.60;9.45;;;20.70;56.10;;;;;;5068574;28;20039;-72
2023/05/15 08:12:25;;;;;;;13.13;10.02;;;20.90;55.60;;;;;;5061616;28;20025;-71
2023/05/15 08:14:53;;;;;;;14.68;8.35;;;21.10;55.10;;;;;;5067388;28;20031;-73
2023/05/15 08:17:19;;;;;;;11.38;9.30;;;21.30;54.70;;;;;;5072982;28;20049;-73
2023/05/15 08:19:46;;;;;;;11.15;8.27;;;21.40;54.30;;;;;;5062298;28;20131;-73
2023/05/15 08:22:12;;;;;;;11.18;8.00;;;21.50;54.10;;;;;;5070874;28;20082;-74
2023/05/15 08:24:39;;;;;;;12.48;9.20;;;21.70;53.90;;;;;;5044025;28;20025;-71
2023/05/15 08:27:08;;;;;;;12.35;7.90;;;21.80;53.30;;;;;;5063192;28;20021;-72
2023/05/15 08:29:37;;;;;;;10.80;7.45;;;22.00;53.00;;;;;;5057714;28;20608;-73
2023/05/15 08:32:05;;;;;;;11.60;7.38;;;22.10;52.70;;;;;;5065480;28;20033;-70
2023/05/15 08:34:31;;;;;;;10.88;7.32;;;22.20;52.40;;;;;;5062980;28;20028;-74
2023/05/15 08:36:58;;;;;;;10.82;7.40;;;22.40;52.40;;;;;;5074066;28;20070;-73
2023/05/15 08:39:24;;;;;;;13.02;6.90;;;22.50;52.00;;;;;;5075978;28;20020;-72
2023/05/15 08:41:59;;;;;;;10.43;7.25;;;22.60;51.70;;;;;;5053220;28;20072;-74
2023/05/15 08:44:25;;;;;;;13.05;7.55;;;22.80;51.30;;;;;;5064594;28;20024;-73
2023/05/15 08:46:54;;;;;;;10.88;7.93;;;22.90;51.10;;;;;;5059512;28;20017;-73
2023/05/15 08:49:28;;;;;;;9.73;7.20;;;23.00;50.90;;;;;;5073223;28;20024;-71
2023/05/15 08:51:54;;;;;;;12.15;7.10;;;23.10;50.60;;;;;;5066815;28;20353;-73
2023/05/15 08:54:21;;;;;;;9.48;6.32;;;23.20;50.50;;;;;;5065227;28;20141;-71
2023/05/15 08:56:47;;;;;;;9.88;6.10;;;23.30;50.10;;;;;;5064800;28;20120;-72
2023/05/15 08:59:13;;;;;;;11.50;7.70;;;23.30;50.00;;;;;;5070421;28;20302;-73
2023/05/15 09:01:39;;;;;;;10.45;7.53;;;23.40;49.90;;;;;;5071848;28;20028;-70
2023/05/15 09:04:05;;;;;;;12.75;7.80;;;23.50;49.90;;;;;;5069195;28;20357;-71
2023/05/15 09:06:32;;;;;;;11.93;8.00;;;23.60;49.90;;;;;;5065259;28;20108;-70
2023/05/15 09:09:01;;;;;;;13.32;8.27;;;23.70;49.70;;;;;;5071116;28;20032;-71
2023/05/15 09:11:28;;;;;;;11.85;8.52;;;23.80;49.50;;;;;;5072086;28;20033;-72
2023/05/15 09:13:58;;;;;;;13.60;8.57;;;23.80;49.50;;;;;;5072813;28;20027;-72
2023/05/15 09:16:24;;;;;;;11.50;8.85;;;23.70;49.60;;;;;;5055986;28;20081;-71
2023/05/15 09:18:52;;;;;;;13.00;9.48;;;23.80;49.80;;;;;;5071446;28;20044;-72
2023/05/15 09:21:23;;;;;;;11.95;9.57;;;23.90;49.70;;;;;;5074542;28;20101;-72
2023/05/15 09:23:49;;;;;;;13.20;9.55;;;24.10;49.50;;;;;;5069707;28;20036;-71
2023/05/15 09:26:15;;;;;;;11.80;8.57;;;24.10;49.60;;;;;;5073339;28;20027;-72
2023/05/15 09:28:41;;;;;;;14.35;7.93;;;24.10;49.50;;;;;;5073727;28;20078;-72
2023/05/15 09:31:07;;;;;;;9.52;6.60;;;24.00;49.50;;;;;;5074896;28;20013;-72
2023/05/15 09:33:38;;;;;;;11.45;7.30;;;24.10;49.30;;;;;;5069298;28;20062;-72
2023/05/15 09:36:06;;;;;;;10.07;7.30;;;24.20;48.90;;;;;;5057350;28;20323;-72
2023/05/15 09:38:41;;;;;;;9.93;7.20;;;24.50;48.70;;;;;;5074626;28;20032;-72
2023/05/15 09:41:07;;;;;;;9.13;6.45;;;24.50;48.40;;;;;;5074699;28;20082;-71
2023/05/15 09:43:37;;;;;;;9.30;6.75;;;24.30;48.60;;;;;;5068937;28;20024;-71
2023/05/15 09:46:04;;;;;;;8.88;5.70;;;24.20;48.60;;;;;;5071880;28;20051;-72
2023/05/15 09:48:31;;;;;;;8.00;5.43;;;24.20;48.60;;;;;;5073504;28;20334;-72
2023/05/15 09:50:57;;;;;;;8.55;5.30;;;24.10;48.30;;;;;;5074808;28;20132;-72
2023/05/15 09:53:23;;;;;;;10.05;5.82;;;24.00;48.10;;;;;;5071724;28;20146;-72
2023/05/15 09:55:51;;;;;;;10.55;6.38;;;24.00;48.10;;;;;;5073400;28;20052;-72
2023/05/15 09:58:17;;;;;;;9.13;6.47;;;23.80;48.30;;;;;;5069156;28;20037;-72
2023/05/15 10:00:46;;;;;;;13.75;8.95;;;23.60;48.30;;;;;;5055911;28;20016;-70
2023/05/15 10:03:13;;;;;;;12.25;9.10;;;23.60;48.50;;;;;;5069110;28;20025;-71
2023/05/15 10:05:39;;;;;;;10.90;7.88;;;23.30;48.90;;;;;;5057920;28;20032;-71
2023/05/15 10:08:05;;;;;;;11.52;7.63;;;23.20;49.20;;;;;;5070567;28;20016;-72
2023/05/15 10:10:32;;;;;;;9.80;6.70;;;23.00;49.00;;;;;;5071224;28;20121;-70
2023/05/15 10:13:02;;;;;;;10.07;7.13;;;22.90;49.00;;;;;;5063123;28;20402;-71
2023/05/15 10:15:28;;;;;;;9.90;7.18;;;22.90;48.90;;;;;;5054343;28;20024;-71
2023/05/15 10:17:54;;;;;;;9.45;6.45;;;22.90;48.70;;;;;;5065780;28;20056;-71
2023/05/15 10:20:23;;;;;;;8.65;6.30;;;22.70;48.60;;;;;;5045765;28;20097;-70
2023/05/15 10:22:51;;;;;;;10.52;6.47;;;22.60;48.70;;;;;;5070000;28;20052;-70
2023/05/15 10:25:38;;;;;;;10.60;7.30;;;22.60;48.60;;;;;;5069103;28;20048;-70
2023/05/15 10:28:08;;;;;;;9.60;6.60;;;22.80;48.40;;;;;;5069690;28;20425;-70
2023/05/15 10:30:35;;;;;;;10.38;6.82;;;22.80;48.20;;;;;;5067621;28;20074;-70
2023/05/15 10:33:03;;;;;;;10.73;6.45;;;22.70;48.00;;;;;;5072541;28;20060;-70
2023/05/15 10:35:29;;;;;;;9.00;6.63;;;22.60;47.90;;;;;;5049191;28;20106;-71
2023/05/15 10:37:56;;;;;;;12.85;7.50;;;22.60;47.90;;;;;;5071827;28;20020;-71
2023/05/15 10:40:23;;;;;;;8.93;6.40;;;22.80;47.70;;;;;;5073435;28;20074;-71
2023/05/15 10:42:49;;;;;;;11.50;8.40;;;23.00;47.30;;;;;;5073319;28;20032;-71
2023/05/15 10:45:15;;;;;;;13.20;9.02;;;22.90;47.30;;;;;;5069089;28;20025;-71
2023/05/15 10:47:42;;;;;;;13.93;9.18;;;22.80;47.70;;;;;;5073422;28;20051;-71
2023/05/15 10:50:10;;;;;;;11.68;8.40;;;22.80;48.00;;;;;;5072802;28;20071;-71
2023/05/15 10:52:37;;;;;;;13.82;7.80;;;22.70;48.80;;;;;;5073173;28;20063;-73
2023/05/15 10:55:08;;;;;;;15.52;8.23;;;22.50;48.20;;;;;;5074392;28;20440;-73
2023/05/15 10:57:35;;;;;;;11.02;6.88;;;22.40;47.80;;;;;;5073959;28;20036;-73
2023/05/15 11:00:01;;;;;;;10.25;5.53;;;22.20;47.50;;;;;;5066470;28;20041;-73
2023/05/15 11:02:30;;;;;;;8.85;5.15;;;22.20;47.10;;;;;;5074144;28;20025;-73
2023/05/15 11:04:57;;;;;;;8.95;5.30;;;22.10;46.80;;;;;;5073997;28;20024;-73
2023/05/15 11:07:24;;;;;;;8.93;5.80;;;22.20;46.80;;;;;;5074075;28;20431;-73
2023/05/15 11:09:52;;;;;;;9.30;5.68;;;22.10;46.50;;;;;;5069039;28;20029;-72
2023/05/15 11:12:18;;;;;;;8.15;5.38;;;22.00;46.30;;;;;;5062723;28;20033;-73
2023/05/15 11:14:53;;;;;;;9.93;5.97;;;22.00;46.40;;;;;;5068859;28;20054;-72
2023/05/15 11:17:22;;;;;;;9.80;6.47;;;21.90;46.40;;;;;;5069260;28;20434;-73
2023/05/15 11:19:50;;;;;;;14.32;6.63;;;21.90;46.90;;;;;;5067883;28;20056;-73
2023/05/15 11:22:27;;;;;;;9.32;6.55;;;21.80;47.30;;;;;;5069031;28;20055;-74
2023/05/15 11:25:11;;;;;;;10.75;7.25;;;21.80;47.40;;;;;;5064520;28;20025;-73
2023/05/15 11:27:38;;;;;;;8.93;5.72;;;21.80;47.70;;;;;;5066721;28;20035;-72
2023/05/15 11:30:12;;;;;;;9.52;6.55;;;21.70;47.90;;;;;;5056960;28;20048;-73
2023/05/15 11:32:53;;;;;;;9.85;7.35;;;21.70;48.30;;;;;;5069771;28;20049;-73
2023/05/15 11:35:33;;;;;;;11.00;7.20;;;21.70;48.60;;;;;;5071852;28;20028;-73
2023/05/15 11:38:23;;;;;;;12.10;6.47;;;21.70;49.20;;;;;;5073972;28;20089;-74
2023/05/15 11:40:59;;;;;;;9.75;6.70;;;21.70;49.20;;;;;;5062688;28;20029;-73
2023/05/15 11:43:35;;;;;;;10.43;6.65;;;21.70;49.10;;;;;;5070788;28;20356;-73
2023/05/15 11:46:06;;;;;;;12.80;7.65;;;21.60;49.10;;;;;;5064704;28;20075;-73
2023/05/15 11:48:39;;;;;;;;;;;21.60;49.30;;;;;;5062964;28;20386;-73
2023/05/15 11:51:12;;;;;;;10.02;6.57;;;21.60;49.50;;;;;;5062191;28;19909;-72
2023/05/15 11:53:38;;;;;;;11.60;7.25;;;21.50;49.60;;;;;;5063464;28;20024;-74
2023/05/15 11:56:04;;;;;;;11.02;7.38;;;21.50;49.90;;;;;;5074244;28;20020;-74
2023/05/15 11:58:30;;;;;;;10.27;7.53;;;21.50;50.20;;;;;;5071281;28;20021;-72
2023/05/15 12:00:57;;;;;;;11.70;7.75;;;21.50;50.20;;;;;;5074606;28;20427;-73
2023/05/15 12:03:24;;;;;;;13.48;8.88;;;21.50;50.50;;;;;;5072483;28;20025;-73
2023/05/15 12:05:52;;;;;;;13.90;9.55;;;21.50;50.70;;;;;;5060825;28;20029;-73
2023/05/15 12:08:22;;;;;;;14.30;9.93;;;21.50;50.80;;;;;;5068299;28;20318;-73
2023/05/15 12:10:48;;;;;;;12.90;9.47;;;21.50;51.00;;;;;;5063480;28;20361;-73
2023/05/15 12:13:16;;;;;;;14.13;10.55;;;21.50;51.20;;;;;;5065534;28;20039;-75
2023/05/15 12:15:44;;;;;;;15.05;12.65;;;21.40;51.40;;;;;;5069614;28;20028;-74
2023/05/15 12:18:10;;;;;;;16.20;11.85;;;21.40;51.80;;;;;;5060993;28;20044;-71
2023/05/15 12:20:38;;;;;;;16.92;12.52;;;21.30;52.00;;;;;;5063508;28;20035;-72
2023/05/15 12:23:06;;;;;;;18.35;13.68;;;21.30;52.40;;;;;;5067667;28;20085;-72
2023/05/15 12:25:34;;;;;;;16.75;12.18;;;21.20;52.70;;;;;;5059667;28;20024;-72
2023/05/15 12:28:02;;;;;;;16.85;12.75;;;21.20;52.90;;;;;;5060600;28;20119;-71
2023/05/15 12:30:30;;;;;;;22.45;14.27;;;21.20;53.00;;;;;;5063912;28;20037;-71
2023/05/15 12:33:02;;;;;;;16.27;13.50;;;21.20;53.00;;;;;;5058772;28;20086;-71
2023/05/15 12:35:27;;;;;;;18.38;14.35;;;21.10;53.10;;;;;;5061294;28;20039;-72